Time;durP1;ratioP1;P1;durP2;ratioP2;P2;SDS_P1;SDS_P2;PMS_P1;PMS_P2;Temp;Humidity;BMP_temperature;BMP_pressure;BME280_temperature;BME280_humidity;BME280_pressure;Samples;Min_cycle;Max_cycle;Signal;HPM_P1;HPM_P2
2023/05/20 00:01:52;;;;;;;0.20;0.20;;;;;;;16.98;42.52;101641.44;5180948;28;20045;-88
2023/05/20 00:04:43;;;;;;;2.83;0.30;;;;;;;16.99;43.09;101647.63;5190948;28;20029;-88
2023/05/20 00:07:34;;;;;;;0.63;0.63;;;;;;;16.80;43.78;101634.19;5178291;28;20037;-88
2023/05/20 00:10:24;;;;;;;0.40;0.40;;;;;;;16.83;43.64;101642.00;5185445;28;20072;-88
2023/05/20 00:13:15;;;;;;;0.30;0.30;;;;;;;16.75;43.77;101634.38;5185354;28;20137;-87
2023/05/20 00:16:06;;;;;;;0.50;0.50;;;;;;;16.62;43.58;101639.28;5172600;28;20033;-87
2023/05/20 00:18:57;;;;;;;0.85;0.68;;;;;;;16.72;43.19;101641.59;5194468;28;20095;-89
2023/05/20 00:21:48;;;;;;;0.63;0.38;;;;;;;16.47;44.13;101640.72;5193275;28;20049;-89
2023/05/20 00:24:38;;;;;;;0.38;0.38;;;;;;;16.55;43.48;101632.50;5173918;28;20033;-88
2023/05/20 00:27:29;;;;;;;0.35;0.35;;;;;;;16.57;43.52;101646.53;5190024;28;20049;-87
2023/05/20 00:30:20;;;;;;;0.30;0.30;;;;;;;16.44;43.34;101647.91;5182047;28;20030;-87
2023/05/20 00:33:11;;;;;;;0.40;0.40;;;;;;;16.44;43.99;101651.44;5185211;28;20049;-86
2023/05/20 00:36:02;;;;;;;0.30;0.30;;;;;;;16.33;43.66;101645.66;5170854;28;20072;-88
2023/05/20 00:38:53;;;;;;;0.40;0.40;;;;;;;16.39;43.83;101641.94;5177982;28;20018;-90
2023/05/20 00:41:44;;;;;;;0.32;0.32;;;;;;;15.99;45.09;101645.06;5196846;28;20033;-87
2023/05/20 00:44:35;;;;;;;0.40;0.40;;;;;;;16.11;45.01;101643.81;5194329;28;20038;-89
2023/05/20 00:47:29;;;;;;;0.90;0.57;;;;;;;16.02;44.95;101644.97;5197971;28;20056;-88
2023/05/20 00:50:20;;;;;;;0.88;0.88;;;;;;;15.94;45.32;101646.19;5196685;28;20110;-88
2023/05/20 00:53:11;;;;;;;0.40;0.40;;;;;;;15.92;44.96;101643.56;5186116;28;20043;-87
2023/05/20 00:56:03;;;;;;;0.45;0.45;;;;;;;15.84;44.87;101645.59;5179776;28;20033;-87
2023/05/20 00:58:56;;;;;;;0.38;0.38;;;;;;;15.40;48.29;101638.22;5190991;28;20083;-88
2023/05/20 01:01:46;;;;;;;0.40;0.40;;;;;;;15.66;45.48;101631.19;5190617;28;20046;-87
2023/05/20 01:04:37;;;;;;;1.10;1.10;;;;;;;15.72;45.35;101636.28;5179472;28;20377;-87
2023/05/20 01:07:28;;;;;;;0.30;0.30;;;;;;;15.44;47.08;101634.56;5187475;28;20077;-86
2023/05/20 01:10:24;;;;;;;1.75;0.77;;;;;;;15.62;45.61;101625.16;5213220;28;20034;-88
2023/05/20 01:13:20;;;;;;;3.88;1.35;;;;;;;15.56;47.03;101628.00;5187586;28;20049;-87
2023/05/20 01:16:16;;;;;;;0.20;0.20;;;;;;;15.59;45.83;101625.25;5181653;28;20046;-88
2023/05/20 01:19:20;;;;;;;0.40;0.40;;;;;;;15.57;45.72;101629.75;5176755;28;20493;-88
2023/05/20 01:22:12;;;;;;;0.73;0.73;;;;;;;15.50;45.77;101636.13;5181651;28;20057;-87
2023/05/20 01:25:04;;;;;;;0.20;0.20;;;;;;;15.43;46.21;101635.50;5174812;28;20021;-88
2023/05/20 01:27:59;;;;;;;0.25;0.25;;;;;;;15.51;46.60;101630.81;5194695;28;20033;-86
2023/05/20 01:30:55;;;;;;;0.57;0.57;;;;;;;15.46;45.66;101635.38;5195569;28;20022;-93
2023/05/20 01:33:52;;;;;;;0.75;0.75;;;;;;;15.46;46.13;101634.53;5169307;28;20029;-88
2023/05/20 01:36:45;;;;;;;1.25;1.08;;;;;;;15.37;45.96;101633.91;5186444;28;20099;-87
2023/05/20 01:39:40;;;;;;;1.75;1.20;;;;;;;15.24;45.90;101622.00;5195071;28;20100;-87
2023/05/20 01:42:32;;;;;;;0.50;0.50;;;;;;;15.31;46.88;101623.53;5188163;28;20041;-87
2023/05/20 01:45:26;;;;;;;0.40;0.40;;;;;;;15.30;46.52;101613.88;5198181;28;20045;-86
2023/05/20 01:48:16;;;;;;;;;;;;;;;15.15;47.54;101614.38;5215646;28;20041;-86
2023/05/20 01:51:08;;;;;;;0.43;0.43;;;;;;;15.00;48.24;101619.22;5200086;28;19915;-87
2023/05/20 01:53:59;;;;;;;0.95;0.90;;;;;;;15.00;47.91;101613.91;5197881;28;20033;-85
2023/05/20 01:56:50;;;;;;;0.28;0.28;;;;;;;14.75;48.79;101612.03;5193391;28;20069;-87
2023/05/20 01:59:41;;;;;;;0.45;0.45;;;;;;;14.81;47.75;101610.13;5181379;28;20029;-88
2023/05/20 02:02:31;;;;;;;0.47;0.47;;;;;;;14.93;47.63;101610.63;5174254;28;20073;-86
2023/05/20 02:05:22;;;;;;;0.50;0.50;;;;;;;14.83;47.44;101613.59;5187974;28;20034;-88
2023/05/20 02:08:13;;;;;;;0.20;0.20;;;;;;;14.90;46.94;101609.84;5177845;28;20045;-88
2023/05/20 02:11:04;;;;;;;0.30;0.30;;;;;;;14.93;47.67;101605.34;5187394;28;20122;-87
2023/05/20 02:13:55;;;;;;;0.82;0.82;;;;;;;14.87;47.72;101607.31;5174069;28;20025;-89
2023/05/20 02:16:46;;;;;;;0.40;0.40;;;;;;;14.77;48.16;101604.94;5162940;28;20523;-87
2023/05/20 02:19:37;;;;;;;1.08;0.77;;;;;;;14.69;47.37;101601.66;5188143;28;20037;-89
2023/05/20 02:22:28;;;;;;;6.95;2.05;;;;;;;14.71;47.65;101599.84;5169870;28;20034;-88
2023/05/20 02:25:19;;;;;;;0.32;0.32;;;;;;;14.82;48.00;101611.88;5189107;28;20033;-87
2023/05/20 02:28:10;;;;;;;0.40;0.40;;;;;;;14.62;48.95;101606.25;5175090;28;20096;-86
2023/05/20 02:31:00;;;;;;;0.30;0.30;;;;;;;14.63;47.59;101601.81;5175955;28;20087;-88
2023/05/20 02:33:51;;;;;;;0.30;0.30;;;;;;;14.45;49.33;101606.75;5190782;28;20156;-88
2023/05/20 02:36:42;;;;;;;0.38;0.38;;;;;;;14.60;48.11;101607.19;5205591;28;20045;-87
2023/05/20 02:39:33;;;;;;;0.40;0.40;;;;;;;14.48;48.75;101592.56;5191115;28;20033;-89
2023/05/20 02:42:24;;;;;;;2.70;1.45;;;;;;;14.34;49.93;101592.97;5180922;28;20064;-87
2023/05/20 02:45:15;;;;;;;0.68;0.68;;;;;;;14.39;49.09;101579.63;5183432;28;20515;-89
2023/05/20 02:48:06;;;;;;;0.50;0.50;;;;;;;14.33;49.48;101599.19;5172120;28;20061;-89
2023/05/20 02:50:58;;;;;;;0.20;0.20;;;;;;;14.46;48.33;101590.00;5194441;28;20032;-88
2023/05/20 02:53:49;;;;;;;0.20;0.20;;;;;;;14.45;48.33;101590.03;5188614;28;20034;-88
2023/05/20 02:56:40;;;;;;;0.98;0.73;;;;;;;14.40;48.30;101591.94;5182689;28;20330;-89
2023/05/20 02:59:30;;;;;;;0.30;0.30;;;;;;;14.29;48.61;101582.56;5177458;28;20124;-86
2023/05/20 03:02:22;;;;;;;0.43;0.43;;;;;;;14.29;49.45;101584.34;5189503;28;20121;-88
2023/05/20 03:05:13;;;;;;;0.68;0.68;;;;;;;14.38;48.28;101573.50;5173171;28;20025;-89
2023/05/20 03:08:09;;;;;;;0.47;0.47;;;;;;;14.38;48.50;101575.28;5179962;28;20026;-89
2023/05/20 03:11:00;;;;;;;0.88;0.88;;;;;;;14.39;48.24;101580.53;5178039;28;20533;-89
2023/05/20 03:13:50;;;;;;;0.65;0.65;;;;;;;14.42;49.04;101575.13;5184335;28;20070;-88
2023/05/20 03:16:41;;;;;;;0.20;0.20;;;;;;;14.42;49.17;101574.28;5189007;28;20112;-88
2023/05/20 03:19:32;;;;;;;0.20;0.20;;;;;;;14.40;49.22;101574.34;5184516;28;20148;-88
2023/05/20 03:22:23;;;;;;;0.43;0.43;;;;;;;14.36;49.47;101571.81;5183100;28;20034;-87
2023/05/20 03:25:14;;;;;;;0.52;0.40;;;;;;;14.30;49.29;101571.06;5168772;28;20022;-88
2023/05/20 03:28:05;;;;;;;0.35;0.35;;;;;;;14.30;48.97;101572.88;5191132;28;20037;-87
2023/05/20 03:30:56;;;;;;;0.38;0.38;;;;;;;14.28;48.84;101564.13;5188452;28;20033;-90
2023/05/20 03:33:47;;;;;;;0.28;0.28;;;;;;;14.24;49.16;101573.06;5176624;28;20104;-88
2023/05/20 03:36:37;;;;;;;0.38;0.38;;;;;;;14.25;49.24;101564.22;5170099;28;20417;-88
2023/05/20 03:39:28;;;;;;;0.35;0.35;;;;;;;14.17;48.88;101560.00;5170323;28;20086;-89
2023/05/20 03:42:19;;;;;;;0.30;0.30;;;;;;;14.18;49.39;101563.53;5185364;28;20022;-90
2023/05/20 03:45:10;;;;;;;0.60;0.60;;;;;;;14.15;49.31;101572.41;5191762;28;20040;-89
2023/05/20 03:48:02;;;;;;;0.22;0.22;;;;;;;14.16;49.38;101568.88;5181585;28;20026;-87
2023/05/20 03:50:53;;;;;;;0.30;0.30;;;;;;;14.10;49.82;101571.66;5183758;28;20033;-85
2023/05/20 03:53:43;;;;;;;0.60;0.60;;;;;;;13.78;52.55;101572.56;5188086;28;20617;-88
2023/05/20 03:56:35;;;;;;;0.43;0.43;;;;;;;13.71;52.04;101574.47;5184041;28;20624;-88
2023/05/20 03:59:26;;;;;;;0.68;0.65;;;;;;;13.75;51.01;101570.88;5198594;28;20079;-87
2023/05/20 04:02:17;;;;;;;0.30;0.30;;;;;;;13.80;51.27;101574.25;5173518;28;20103;-88
2023/05/20 04:05:09;;;;;;;1.30;1.20;;;;;;;13.77;52.37;101569.03;5168896;28;20021;-89
2023/05/20 04:08:00;;;;;;;0.30;0.30;;;;;;;13.59;52.39;101570.41;5179675;28;20641;-87
2023/05/20 04:10:54;;;;;;;0.40;0.40;;;;;;;13.54;52.43;101567.88;5172013;28;20041;-90
2023/05/20 04:13:45;;;;;;;0.52;0.52;;;;;;;13.46;53.99;101569.00;5188832;28;20033;-88
2023/05/20 04:16:36;;;;;;;0.30;0.30;;;;;;;13.69;51.14;101566.63;5170285;28;20080;-87
2023/05/20 04:19:27;;;;;;;0.38;0.38;;;;;;;13.71;51.35;101574.47;5188748;28;20029;-88
2023/05/20 04:22:18;;;;;;;1.05;1.05;;;;;;;13.76;50.73;101577.84;5183660;28;20096;-88
2023/05/20 04:25:09;;;;;;;0.40;0.40;;;;;;;13.79;50.59;101575.16;5190156;28;20037;-88
2023/05/20 04:28:00;;;;;;;0.47;0.47;;;;;;;13.78;50.60;101570.78;5168727;28;20041;-87
2023/05/20 04:30:58;;;;;;;0.40;0.40;;;;;;;13.67;51.28;101562.31;5178890;28;20075;-88
2023/05/20 04:33:49;;;;;;;0.70;0.70;;;;;;;13.75;50.99;101565.59;5170971;28;20515;-89
2023/05/20 04:36:40;;;;;;;0.30;0.30;;;;;;;13.65;52.24;101566.75;5170847;28;20033;-89
2023/05/20 04:39:30;;;;;;;0.50;0.50;;;;;;;13.73;51.36;101567.41;5184159;28;20049;-89
2023/05/20 04:42:21;;;;;;;0.30;0.30;;;;;;;13.71;52.63;101568.34;5168409;28;20100;-88
2023/05/20 04:45:12;;;;;;;0.30;0.30;;;;;;;13.43;53.92;101569.06;5172624;28;20037;-89
2023/05/20 04:48:04;;;;;;;2.30;0.57;;;;;;;13.51;53.58;101562.69;5185496;28;20041;-87
2023/05/20 04:50:55;;;;;;;0.40;0.40;;;;;;;13.49;53.04;101564.50;5186918;28;20121;-88
2023/05/20 04:53:46;;;;;;;0.60;0.60;;;;;;;13.55;52.62;101563.50;5169316;28;20033;-88
2023/05/20 04:56:37;;;;;;;0.50;0.50;;;;;;;13.68;52.20;101569.28;5195258;28;20906;-89
2023/05/20 04:59:28;;;;;;;0.65;0.65;;;;;;;13.58;53.12;101568.66;5182533;28;20030;-86
2023/05/20 05:02:19;;;;;;;0.43;0.43;;;;;;;13.65;54.38;101566.75;5191334;28;20034;-88
2023/05/20 05:05:10;;;;;;;0.30;0.30;;;;;;;13.53;53.49;101565.28;5174966;28;20072;-89
2023/05/20 05:08:02;;;;;;;0.28;0.28;;;;;;;13.57;54.49;101566.94;5172342;28;20104;-87
2023/05/20 05:10:52;;;;;;;0.50;0.50;;;;;;;13.70;53.55;101578.03;5174735;28;20042;-87
2023/05/20 05:13:43;;;;;;;0.40;0.40;;;;;;;13.64;53.49;101570.28;5185606;28;20133;-89
2023/05/20 05:16:34;;;;;;;0.75;0.75;;;;;;;13.38;57.06;101577.06;5170697;28;20492;-87
2023/05/20 05:19:25;;;;;;;0.50;0.50;;;;;;;13.63;54.00;101566.78;5179785;28;20093;-89
2023/05/20 05:22:16;;;;;;;1.05;1.05;;;;;;;13.67;53.81;101560.53;5189956;28;20052;-88
2023/05/20 05:25:07;;;;;;;0.40;0.40;;;;;;;13.54;56.63;101562.59;5171083;28;20512;-87
2023/05/20 05:27:58;;;;;;;2.17;0.55;;;;;;;13.39;56.57;101563.00;5172290;28;20106;-89
2023/05/20 05:30:49;;;;;;;0.70;0.70;;;;;;;13.44;57.47;101563.75;5187557;28;20443;-87
2023/05/20 05:33:40;;;;;;;0.20;0.20;;;;;;;13.44;56.14;101553.19;5194331;28;20048;-90
2023/05/20 05:36:32;;;;;;;0.40;0.40;;;;;;;13.27;58.50;101552.72;5169413;28;20046;-88
2023/05/20 05:39:23;;;;;;;0.40;0.40;;;;;;;13.44;57.25;101555.84;5168781;28;20037;-88
2023/05/20 05:42:14;;;;;;;0.43;0.43;;;;;;;13.66;57.03;101552.66;5172662;28;20072;-87
2023/05/20 05:45:05;;;;;;;0.65;0.65;;;;;;;13.72;55.40;101549.84;5176377;28;20361;-88
2023/05/20 05:47:56;;;;;;;0.40;0.40;;;;;;;13.68;57.17;101548.19;5203126;28;20042;-88
2023/05/20 05:50:47;;;;;;;1.00;1.00;;;;;;;13.78;54.97;101544.41;5172693;28;20030;-87
2023/05/20 05:53:38;;;;;;;0.35;0.35;;;;;;;13.83;54.57;101539.88;5165433;28;20062;-89
2023/05/20 05:56:29;;;;;;;0.57;0.57;;;;;;;13.82;56.36;101546.06;5168354;28;20030;-88
2023/05/20 05:59:19;;;;;;;0.40;0.35;;;;;;;14.00;54.83;101541.19;5166690;28;20034;-88
2023/05/20 06:02:10;;;;;;;1.17;0.65;;;;;;;13.85;56.37;101553.88;5181261;28;20091;-89
2023/05/20 06:05:02;;;;;;;0.30;0.30;;;;;;;13.95;56.68;101556.25;5168066;28;20084;-86
2023/05/20 06:07:53;;;;;;;3.38;1.65;;;;;;;13.99;55.38;101540.28;5205164;28;20030;-87
2023/05/20 06:10:50;;;;;;;0.50;0.50;;;;;;;13.92;56.95;101544.03;5175895;28;20065;-89
2023/05/20 06:13:41;;;;;;;0.20;0.20;;;;;;;14.03;56.20;101548.13;5171595;28;20072;-88
2023/05/20 06:16:32;;;;;;;0.40;0.40;;;;;;;13.94;56.88;101543.97;5193054;28;20060;-89
2023/05/20 06:19:23;;;;;;;1.00;0.90;;;;;;;13.95;57.11;101529.88;5177241;28;20030;-87
2023/05/20 06:22:13;;;;;;;0.65;0.65;;;;;;;13.81;58.46;101531.13;5164995;28;20049;-88
2023/05/20 06:25:05;;;;;;;0.40;0.40;;;;;;;14.07;55.23;101529.53;5195767;28;20025;-86
2023/05/20 06:27:56;;;;;;;0.38;0.38;;;;;;;14.14;56.33;101525.81;5171214;28;20033;-87
2023/05/20 06:30:46;;;;;;;0.40;0.40;;;;;;;14.12;56.89;101527.63;5192431;28;20153;-88
2023/05/20 06:33:37;;;;;;;0.30;0.30;;;;;;;14.04;57.76;101534.88;5179779;28;20037;-87
2023/05/20 06:36:28;;;;;;;0.40;0.40;;;;;;;14.26;55.75;101524.59;5182551;28;20097;-88
2023/05/20 06:39:19;;;;;;;0.30;0.30;;;;;;;14.31;55.80;101521.81;5170653;28;20029;-88
2023/05/20 06:42:10;;;;;;;0.38;0.38;;;;;;;14.30;57.49;101522.72;5185690;28;20026;-88
2023/05/20 06:45:01;;;;;;;0.35;0.35;;;;;;;14.24;57.36;101520.25;5160324;28;20037;-88
2023/05/20 06:47:53;;;;;;;0.60;0.60;;;;;;;14.44;55.87;101524.94;5168384;28;20036;-89
2023/05/20 06:50:44;;;;;;;0.75;0.75;;;;;;;14.37;57.34;101516.34;5166955;28;20124;-87
2023/05/20 06:53:35;;;;;;;2.65;0.82;;;;;;;14.41;57.30;101518.00;5176671;28;20603;-88
2023/05/20 06:56:26;;;;;;;0.32;0.32;;;;;;;14.55;55.74;101514.03;5174142;28;20042;-89
2023/05/20 06:59:17;;;;;;;0.30;0.30;;;;;;;14.54;56.88;101510.56;5172778;28;20507;-88
2023/05/20 07:02:08;;;;;;;0.80;0.68;;;;;;;14.59;55.94;101515.66;5183683;28;20037;-88
2023/05/20 07:04:58;;;;;;;0.60;0.60;;;;;;;14.55;57.79;101514.03;5168594;28;20052;-88
2023/05/20 07:07:49;;;;;;;0.73;0.68;;;;;;;14.68;57.05;101514.56;5168935;28;20048;-87
2023/05/20 07:10:40;;;;;;;0.30;0.30;;;;;;;14.67;57.08;101512.81;5165815;28;20045;-87
2023/05/20 07:13:31;;;;;;;0.45;0.45;;;;;;;14.67;57.33;101503.09;5179803;28;20034;-88
2023/05/20 07:16:22;;;;;;;0.32;0.32;;;;;;;14.81;56.58;101505.31;5165944;28;20046;-88
2023/05/20 07:19:15;;;;;;;0.20;0.20;;;;;;;14.83;56.82;101506.13;5170059;28;20035;-87
2023/05/20 07:22:06;;;;;;;1.10;1.02;;;;;;;14.98;55.92;101506.53;5171688;28;20045;-88
2023/05/20 07:24:58;;;;;;;0.40;0.40;;;;;;;14.96;56.58;101503.97;5186644;28;20002;-86
2023/05/20 07:27:49;;;;;;;0.82;0.70;;;;;;;15.08;55.43;101498.25;5199893;28;20040;-85
2023/05/20 07:30:40;;;;;;;0.55;0.55;;;;;;;15.18;56.22;101490.00;5180668;28;20083;-88
2023/05/20 07:33:31;;;;;;;0.20;0.20;;;;;;;15.22;56.79;101489.84;5179250;28;20053;-86
2023/05/20 07:36:22;;;;;;;0.85;0.82;;;;;;;15.36;56.63;101489.38;5179401;28;20569;-87
2023/05/20 07:39:14;;;;;;;0.52;0.52;;;;;;;15.25;56.78;101484.47;5180616;28;20395;-88
2023/05/20 07:42:05;;;;;;;0.30;0.30;;;;;;;15.29;57.59;101484.38;5172340;28;20048;-86
2023/05/20 07:44:56;;;;;;;0.20;0.20;;;;;;;15.40;56.52;101483.09;5167404;28;20036;-87
2023/05/20 07:47:46;;;;;;;0.45;0.45;;;;;;;15.48;55.93;101484.59;5193102;28;20034;-87
2023/05/20 07:50:38;;;;;;;0.47;0.45;;;;;;;15.46;56.79;101481.13;5192604;28;20107;-86
2023/05/20 07:53:29;;;;;;;0.63;0.63;;;;;;;15.59;56.63;101487.69;5166028;28;20038;-86
2023/05/20 07:56:20;;;;;;;0.43;0.43;;;;;;;15.69;55.48;101477.66;5181811;28;20049;-88
2023/05/20 07:59:11;;;;;;;0.95;0.40;;;;;;;15.79;55.47;101478.19;5171163;28;20025;-88
2023/05/20 08:02:02;;;;;;;1.95;0.90;;;;;;;15.83;54.56;101480.69;5185824;28;20030;-88
2023/05/20 08:04:53;;;;;;;0.40;0.40;;;;;;;15.79;55.14;101473.75;5203933;28;20029;-87
2023/05/20 08:07:44;;;;;;;0.40;0.40;;;;;;;15.83;54.94;101479.78;5172058;28;20033;-88
2023/05/20 08:10:35;;;;;;;0.55;0.55;;;;;;;15.85;54.87;101472.69;5162654;28;20112;-88
2023/05/20 08:13:26;;;;;;;0.47;0.47;;;;;;;16.06;54.91;101465.72;5169164;28;20053;-87
2023/05/20 08:16:17;;;;;;;0.20;0.20;;;;;;;16.11;55.05;101473.50;5184704;28;20049;-87
2023/05/20 08:19:08;;;;;;;0.35;0.35;;;;;;;16.16;55.15;101463.56;5176147;28;20026;-86
2023/05/20 08:21:59;;;;;;;0.30;0.30;;;;;;;16.17;54.85;101467.97;5177684;28;20124;-86
2023/05/20 08:24:49;;;;;;;0.60;0.60;;;;;;;16.11;54.64;101471.72;5180839;28;20056;-88
2023/05/20 08:27:40;;;;;;;0.73;0.70;;;;;;;16.05;54.34;101466.66;5185734;28;20045;-87
2023/05/20 08:30:33;;;;;;;0.30;0.30;;;;;;;16.07;55.27;101456.88;5174655;28;20036;-88
2023/05/20 08:33:24;;;;;;;0.30;0.30;;;;;;;16.33;55.19;101458.50;5167852;28;20440;-89
2023/05/20 08:36:15;;;;;;;0.73;0.73;;;;;;;16.35;54.83;101461.94;5164398;28;20042;-88
2023/05/20 08:39:06;;;;;;;2.10;1.40;;;;;;;16.39;54.64;101457.38;5176313;28;20343;-86
2023/05/20 08:41:57;;;;;;;0.45;0.45;;;;;;;16.53;54.87;101456.84;5168909;28;20803;-88
2023/05/20 08:44:50;;;;;;;0.90;0.80;;;;;;;16.50;55.24;101454.31;5166113;28;20049;-87
2023/05/20 08:47:42;;;;;;;0.32;0.32;;;;;;;16.67;54.63;101454.50;5171675;28;20062;-88
2023/05/20 08:50:33;;;;;;;0.68;0.68;;;;;;;16.75;54.54;101458.59;5189837;28;20560;-90
2023/05/20 08:53:25;;;;;;;0.60;0.60;;;;;;;16.66;54.70;101455.41;5187671;28;20041;-89
2023/05/20 08:56:17;;;;;;;1.40;1.05;;;;;;;16.87;54.36;101450.16;5168416;28;20091;-86
2023/05/20 08:59:08;;;;;;;0.95;0.35;;;;;;;16.94;54.96;101450.81;5178720;28;20018;-89
2023/05/20 09:01:59;;;;;;;0.57;0.57;;;;;;;16.97;54.80;101451.53;5168733;28;20036;-88
2023/05/20 09:04:51;;;;;;;0.38;0.38;;;;;;;16.89;54.48;101450.97;5193734;28;20049;-87
2023/05/20 09:07:42;;;;;;;0.57;0.38;;;;;;;16.94;54.24;101449.00;5165974;28;20049;-87
2023/05/20 09:10:33;;;;;;;0.30;0.30;;;;;;;16.97;54.06;101454.19;5168603;28;20041;-89
2023/05/20 09:13:26;;;;;;;0.28;0.28;;;;;;;16.83;54.38;101457.38;5171568;28;20041;-89
2023/05/20 09:16:17;;;;;;;0.77;0.77;;;;;;;17.17;53.64;101446.28;5172679;28;20556;-87
2023/05/20 09:19:09;;;;;;;0.63;0.63;;;;;;;17.15;54.18;101459.59;5162799;28;20438;-88
2023/05/20 09:22:02;;;;;;;0.77;0.77;;;;;;;17.21;53.68;101438.16;5173534;28;20571;-88
2023/05/20 09:24:54;;;;;;;0.90;0.90;;;;;;;17.29;54.02;101443.97;5171630;28;20045;-88
2023/05/20 09:27:45;;;;;;;0.38;0.38;;;;;;;17.19;54.03;101450.59;5175132;28;20034;-88
2023/05/20 09:30:36;;;;;;;0.43;0.43;;;;;;;17.36;53.65;101449.00;5186066;28;20475;-88
2023/05/20 09:33:30;;;;;;;0.35;0.35;;;;;;;17.43;54.26;101445.16;5178670;28;20510;-88
2023/05/20 09:36:22;;;;;;;1.08;0.95;;;;;;;17.41;53.41;101442.56;5166419;28;20046;-89
2023/05/20 09:39:18;;;;;;;2.38;1.17;;;;;;;17.30;53.62;101437.75;5179750;28;20025;-89
2023/05/20 09:42:19;;;;;;;0.65;0.65;;;;;;;17.34;54.11;101426.97;5172355;28;20033;-88
2023/05/20 09:45:10;;;;;;;0.82;0.82;;;;;;;17.65;54.09;101433.56;5177989;28;20105;-88
2023/05/20 09:48:07;;;;;;;0.55;0.55;;;;;;;17.50;53.58;101432.47;5168634;28;20030;-88
2023/05/20 09:51:00;;;;;;;1.75;0.77;;;;;;;17.55;54.04;101434.00;5183062;28;20496;-89
2023/05/20 09:53:52;;;;;;;3.23;0.83;;;;;;;17.64;53.66;101439.81;5167175;28;20037;-88
2023/05/20 09:56:43;;;;;;;0.45;0.45;;;;;;;17.59;52.97;101440.03;5169252;28;20280;-87
2023/05/20 09:59:36;;;;;;;2.92;1.23;;;;;;;17.63;53.81;101433.63;5189787;28;20037;-88
2023/05/20 10:02:28;;;;;;;1.15;0.47;;;;;;;17.48;53.94;101435.19;5181278;28;20041;-89
2023/05/20 10:05:23;;;;;;;2.20;1.20;;;;;;;17.58;53.21;101431.19;5191074;28;20137;-88
2023/05/20 10:08:40;;;;;;;0.40;0.40;;;;;;;17.69;53.14;101429.84;5176772;28;20042;-88
2023/05/20 10:11:43;;;;;;;0.30;0.30;;;;;;;17.72;53.27;101424.41;5168007;28;20041;-89
2023/05/20 10:14:37;;;;;;;0.73;0.73;;;;;;;17.72;53.55;101429.72;5181995;28;20037;-87
2023/05/20 10:17:43;;;;;;;2.03;1.13;;;;;;;17.74;53.91;101430.47;5165715;28;20046;-88
2023/05/20 10:20:50;;;;;;;0.80;0.80;;;;;;;17.72;53.02;101427.06;5184299;28;20145;-87
2023/05/20 10:23:41;;;;;;;0.88;0.88;;;;;;;17.78;53.42;101421.47;5171537;28;20045;-87
2023/05/20 10:26:40;;;;;;;0.20;0.20;;;;;;;17.93;53.03;101426.06;5170055;28;20577;-88
2023/05/20 10:29:51;;;;;;;0.55;0.55;;;;;;;17.84;53.20;101429.13;5176845;28;20029;-87
2023/05/20 10:32:52;;;;;;;0.35;0.35;;;;;;;17.96;52.75;101416.25;5176101;28;20069;-88
2023/05/20 10:35:49;;;;;;;1.58;0.75;;;;;;;18.05;52.71;101421.16;5175579;28;20519;-88
2023/05/20 10:38:51;;;;;;;0.40;0.40;;;;;;;18.19;53.18;101426.66;5175383;28;20049;-87
2023/05/20 10:41:41;;;;;;;0.55;0.55;;;;;;;18.29;53.08;101427.06;5180108;28;20117;-87
2023/05/20 10:44:42;;;;;;;1.20;0.90;;;;;;;18.09;52.58;101428.00;5189796;28;20026;-88
2023/05/20 10:47:34;;;;;;;0.20;0.20;;;;;;;18.28;52.08;101427.13;5175453;28;20046;-88
2023/05/20 10:50:35;;;;;;;0.93;0.68;;;;;;;18.25;52.59;101417.53;5183407;28;20048;-89
2023/05/20 10:53:26;;;;;;;0.70;0.52;;;;;;;18.19;51.74;101417.81;5179565;28;20060;-88
2023/05/20 10:56:20;;;;;;;0.73;0.73;;;;;;;18.36;51.69;101417.84;5162536;28;20045;-87
2023/05/20 10:59:11;;;;;;;0.35;0.35;;;;;;;18.41;51.39;101412.31;5180446;28;20114;-89
2023/05/20 11:02:02;;;;;;;0.63;0.63;;;;;;;18.50;52.06;101414.53;5165178;28;20037;-89
2023/05/20 11:04:57;;;;;;;0.22;0.22;;;;;;;18.65;51.83;101414.69;5172645;28;20662;-88
2023/05/20 11:07:48;;;;;;;0.30;0.30;;;;;;;18.49;51.55;101418.09;5181522;28;20096;-87
2023/05/20 11:10:41;;;;;;;1.85;1.40;;;;;;;18.58;51.52;101416.81;5171803;28;20175;-87
2023/05/20 11:13:32;;;;;;;0.40;0.38;;;;;;;18.52;52.23;101419.75;5174715;28;20061;-86
2023/05/20 11:16:26;;;;;;;0.80;0.80;;;;;;;18.64;51.87;101412.97;5175077;28;20050;-89
2023/05/20 11:19:18;;;;;;;1.85;1.63;;;;;;;18.70;51.23;101412.69;5190151;28;20037;-90
2023/05/20 11:22:09;;;;;;;0.30;0.30;;;;;;;18.76;51.89;101415.03;5174966;28;20041;-90
2023/05/20 11:25:06;;;;;;;6.35;2.22;;;;;;;18.79;51.62;101408.69;5185098;28;20033;-90
2023/05/20 11:27:57;;;;;;;0.63;0.63;;;;;;;18.86;51.05;101397.66;5199169;28;20120;-90
2023/05/20 11:30:48;;;;;;;0.30;0.30;;;;;;;18.79;51.42;101395.38;5186993;28;20543;-89
2023/05/20 11:33:42;;;;;;;0.30;0.30;;;;;;;18.64;51.59;101397.88;5168215;28;20045;-90
2023/05/20 11:36:33;;;;;;;0.95;0.45;;;;;;;18.86;51.44;101389.69;5176867;28;20333;-89
2023/05/20 11:39:26;;;;;;;2.35;0.75;;;;;;;18.81;51.12;101399.69;5177445;28;20163;-90
2023/05/20 11:42:17;;;;;;;2.67;1.15;;;;;;;18.65;51.91;101393.41;5174918;28;20033;-90
2023/05/20 11:45:13;;;;;;;1.05;1.05;;;;;;;18.75;51.77;101389.38;5163784;28;20537;-91
2023/05/20 11:48:04;;;;;;;2.00;1.00;;;;;;;18.88;51.16;101393.09;5193306;28;20080;-90
2023/05/20 11:50:56;;;;;;;0.75;0.63;;;;;;;18.84;52.11;101385.41;5181394;28;20120;-90
2023/05/20 11:53:47;;;;;;;5.85;1.60;;;;;;;18.80;51.63;101386.47;5201104;28;20031;-89
2023/05/20 11:56:42;;;;;;;0.68;0.68;;;;;;;18.75;51.60;101392.03;5202481;28;20045;-90
2023/05/20 11:59:33;;;;;;;0.82;0.75;;;;;;;19.01;52.10;101384.53;5191500;28;20048;-90
2023/05/20 12:02:24;;;;;;;0.40;0.40;;;;;;;19.09;51.21;101382.34;5183428;28;20112;-89
2023/05/20 12:05:15;;;;;;;4.50;0.88;;;;;;;19.08;51.37;101374.44;5217969;28;20022;-88
2023/05/20 12:08:06;;;;;;;0.40;0.40;;;;;;;19.38;51.11;101371.94;5191059;28;20112;-91
2023/05/20 12:10:57;;;;;;;1.63;1.40;;;;;;;19.21;51.00;101367.53;5178713;28;20695;-91
2023/05/20 12:13:48;;;;;;;1.38;1.27;;;;;;;19.15;50.63;101363.38;5176928;28;20025;-90
2023/05/20 12:16:39;;;;;;;0.63;0.63;;;;;;;19.07;51.37;101362.09;5189404;28;20033;-91
2023/05/20 12:19:30;;;;;;;2.45;0.50;;;;;;;19.49;51.07;101358.06;5178936;28;20040;-90
2023/05/20 12:22:20;;;;;;;0.55;0.55;;;;;;;19.53;50.54;101364.94;5194441;28;20057;-90
2023/05/20 12:25:13;;;;;;;3.33;0.68;;;;;;;19.63;50.33;101354.63;5175308;28;20032;-90
2023/05/20 12:28:04;;;;;;;4.82;1.77;;;;;;;19.30;51.10;101361.72;5184884;28;20087;-90
2023/05/20 12:30:55;;;;;;;0.93;0.93;;;;;;;19.54;50.66;101360.47;5195137;28;20014;-91
2023/05/20 12:33:46;;;;;;;1.40;0.93;;;;;;;19.43;51.09;101366.38;5194193;28;20013;-89
2023/05/20 12:36:37;;;;;;;1.10;0.88;;;;;;;19.79;50.06;101352.81;5193361;28;20264;-90
2023/05/20 12:39:28;;;;;;;1.30;1.20;;;;;;;19.72;50.39;101351.47;5183312;28;20030;-90
2023/05/20 12:42:18;;;;;;;0.63;0.63;;;;;;;19.53;50.09;101343.63;5173131;28;20104;-89
2023/05/20 12:45:10;;;;;;;0.52;0.52;;;;;;;20.01;50.05;101334.81;5179553;28;20171;-92
2023/05/20 12:48:01;;;;;;;0.40;0.40;;;;;;;19.91;49.57;101353.13;5185462;28;20036;-92
2023/05/20 12:50:52;;;;;;;0.25;0.25;;;;;;;19.78;49.81;101342.28;5179979;28;20120;-91
2023/05/20 12:53:43;;;;;;;0.80;0.80;;;;;;;20.10;50.01;101337.81;5191516;28;20041;-91
2023/05/20 12:56:34;;;;;;;0.52;0.45;;;;;;;20.33;49.99;101327.63;5210402;28;20045;-91
2023/05/20 12:59:25;;;;;;;0.80;0.70;;;;;;;20.42;49.42;101332.41;5171547;28;20124;-92
2023/05/20 13:02:15;;;;;;;0.85;0.85;;;;;;;20.36;49.28;101321.25;5175740;28;20450;-91
2023/05/20 13:05:07;;;;;;;0.80;0.80;;;;;;;20.04;48.99;101327.50;5167940;28;20026;-90
2023/05/20 13:07:57;;;;;;;0.73;0.70;;;;;;;20.24;49.62;101318.38;5184436;28;20485;-92
2023/05/20 13:10:48;;;;;;;1.38;0.93;;;;;;;20.42;49.57;101319.09;5181828;28;20076;-92
2023/05/20 13:13:40;;;;;;;0.70;0.70;;;;;;;20.48;49.64;101315.22;5170893;28;20040;-90
2023/05/20 13:16:31;;;;;;;1.13;1.02;;;;;;;20.63;49.31;101308.09;5188200;28;20054;-91
2023/05/20 13:19:22;;;;;;;0.65;0.65;;;;;;;20.63;48.81;101302.75;5172699;28;20034;-90